createdAt,value
2023-04-08T00:00:46.465Z,101275.38
2023-04-08T00:03:13.127Z,101273.50
2023-04-08T00:05:39.812Z,101279.72
2023-04-08T00:08:06.592Z,101280.34
2023-04-08T00:10:33.584Z,101281.25
2023-04-08T00:13:00.933Z,101286.00
2023-04-08T00:15:27.546Z,101282.16
2023-04-08T00:17:54.470Z,101284.56
2023-04-08T00:20:24.040Z,101287.09
2023-04-08T00:22:50.920Z,101283.03
2023-04-08T00:25:17.538Z,101281.22
2023-04-08T00:27:44.141Z,101285.44
2023-04-08T00:30:11.587Z,101282.88
2023-04-08T00:32:38.518Z,101281.22
2023-04-08T00:35:05.385Z,101282.66
2023-04-08T00:37:31.983Z,101292.56
2023-04-08T00:39:58.819Z,101280.78
2023-04-08T00:42:25.323Z,101286.28
2023-04-08T00:44:51.973Z,101289.31
2023-04-08T00:47:18.831Z,101289.94
2023-04-08T00:49:45.849Z,101285.94
2023-04-08T00:52:12.476Z,101295.88
2023-04-08T00:54:39.618Z,101287.84
2023-04-08T00:57:06.788Z,101292.22
2023-04-08T00:59:35.903Z,101287.69
2023-04-08T01:02:23.980Z,101297.72
2023-04-08T01:05:10.498Z,101309.25
2023-04-08T01:07:41.274Z,101309.31
2023-04-08T01:10:15.545Z,101301.00
2023-04-08T01:12:48.298Z,101306.91
2023-04-08T01:15:15.897Z,101314.19
2023-04-08T01:17:44.553Z,101300.84
2023-04-08T01:20:13.285Z,101304.06
2023-04-08T01:23:04.366Z,101293.59
2023-04-08T01:25:34.282Z,101307.56
2023-04-08T01:28:05.231Z,101311.97
2023-04-08T01:30:33.497Z,101305.38
2023-04-08T01:33:02.443Z,101302.00
2023-04-08T01:35:30.681Z,101305.53
2023-04-08T01:37:58.157Z,101300.59
2023-04-08T01:40:25.058Z,101306.25
2023-04-08T01:42:55.744Z,101304.38
2023-04-08T01:45:23.945Z,101301.75
2023-04-08T01:47:52.620Z,101313.41
2023-04-08T01:50:20.774Z,101312.75
2023-04-08T01:52:49.332Z,101312.81
2023-04-08T01:55:17.103Z,101303.13
2023-04-08T01:57:48.843Z,101308.34
2023-04-08T02:00:18.383Z,101309.00
2023-04-08T02:02:49.500Z,101311.69
2023-04-08T02:05:16.518Z,101308.94
2023-04-08T02:07:43.169Z,101309.78
2023-04-08T02:10:10.223Z,101311.84
2023-04-08T02:12:37.258Z,101294.78
2023-04-08T02:15:10.466Z,101297.94
2023-04-08T02:17:50.415Z,101306.25
2023-04-08T02:20:25.217Z,101296.44
2023-04-08T02:23:07.526Z,101312.69
2023-04-08T02:25:37.634Z,101313.69
2023-04-08T02:28:11.222Z,101326.44
2023-04-08T02:30:42.251Z,101322.25
2023-04-08T02:33:09.477Z,101325.44
2023-04-08T02:35:36.458Z,101320.97
2023-04-08T02:38:03.054Z,101323.34
2023-04-08T02:40:32.976Z,101335.88
2023-04-08T02:43:00.360Z,101326.09
2023-04-08T02:45:31.365Z,101328.25
2023-04-08T02:48:00.222Z,101332.84
2023-04-08T02:50:27.247Z,101331.13
2023-04-08T02:52:53.785Z,101328.31
2023-04-08T02:55:20.415Z,101332.84
2023-04-08T02:57:47.803Z,101334.09
2023-04-08T03:00:15.295Z,101325.34
2023-04-08T03:02:42.107Z,101335.72
2023-04-08T03:05:09.632Z,101336.59
2023-04-08T03:07:36.790Z,101335.53
2023-04-08T03:10:03.631Z,101338.63
2023-04-08T03:12:31.454Z,101340.81
2023-04-08T03:14:57.996Z,101337.88
2023-04-08T03:17:24.763Z,101341.84
2023-04-08T03:19:51.291Z,101341.22
2023-04-08T03:22:17.891Z,101338.06
2023-04-08T03:24:44.434Z,101336.25
2023-04-08T03:27:12.517Z,101337.41
2023-04-08T03:29:39.028Z,101339.53
2023-04-08T03:32:05.818Z,101339.72
2023-04-08T03:34:34.728Z,101345.25
2023-04-08T03:37:01.747Z,101335.97
2023-04-08T03:39:28.383Z,101337.78
2023-04-08T03:41:55.126Z,101339.53
2023-04-08T03:44:21.669Z,101345.63
2023-04-08T03:46:48.228Z,101339.13
2023-04-08T03:49:14.741Z,101341.13
2023-04-08T03:51:41.547Z,101343.31
2023-04-08T03:54:08.649Z,101345.81
2023-04-08T03:56:35.305Z,101340.91
2023-04-08T03:59:01.815Z,101352.00
2023-04-08T04:01:29.028Z,101359.47
2023-04-08T04:03:55.884Z,101357.81
2023-04-08T04:06:22.563Z,101349.31
2023-04-08T04:08:50.348Z,101346.38
2023-04-08T04:11:17.194Z,101351.03
2023-04-08T04:13:43.753Z,101350.06
2023-04-08T04:16:10.323Z,101358.63
2023-04-08T04:18:36.961Z,101353.44
2023-04-08T04:21:07.217Z,101350.63
2023-04-08T04:23:34.171Z,101359.97
2023-04-08T04:26:00.647Z,101361.72
2023-04-08T04:28:27.243Z,101364.06
2023-04-08T04:30:55.908Z,101360.63
2023-04-08T04:33:23.123Z,101374.88
2023-04-08T04:35:49.724Z,101378.19
2023-04-08T04:38:16.429Z,101375.59
2023-04-08T04:40:44.161Z,101376.50
2023-04-08T04:43:11.137Z,101373.19
2023-04-08T04:45:37.643Z,101379.63
2023-04-08T04:48:04.334Z,101371.75
2023-04-08T04:50:30.871Z,101379.81
2023-04-08T04:52:57.567Z,101387.69
2023-04-08T04:55:24.198Z,101388.22
2023-04-08T04:57:50.808Z,101385.13
2023-04-08T05:00:17.480Z,101395.44
2023-04-08T05:02:44.411Z,101393.75
2023-04-08T05:05:11.202Z,101391.19
2023-04-08T05:07:38.764Z,101391.44
2023-04-08T05:10:06.045Z,101395.13
2023-04-08T05:12:32.935Z,101394.84
2023-04-08T05:14:59.647Z,101393.88
2023-04-08T05:17:26.504Z,101393.00
2023-04-08T05:19:53.537Z,101398.72
2023-04-08T05:22:20.158Z,101402.72
2023-04-08T05:24:46.758Z,101402.72
2023-04-08T05:27:13.446Z,101407.13
2023-04-08T05:29:40.011Z,101406.38
2023-04-08T05:32:06.575Z,101409.00
2023-04-08T05:34:33.182Z,101403.38
2023-04-08T05:36:59.745Z,101405.75
2023-04-08T05:39:26.294Z,101413.84
2023-04-08T05:41:52.919Z,101420.66
2023-04-08T05:44:19.497Z,101427.88
2023-04-08T05:46:46.133Z,101430.63
2023-04-08T05:49:12.731Z,101431.47
2023-04-08T05:51:39.682Z,101434.31
2023-04-08T05:54:06.302Z,101430.72
2023-04-08T05:56:32.869Z,101437.75
2023-04-08T05:58:59.377Z,101455.97
2023-04-08T06:01:26.206Z,101447.06
2023-04-08T06:03:53.096Z,101447.19
2023-04-08T06:06:19.741Z,101453.84
2023-04-08T06:08:47.150Z,101454.88
2023-04-08T06:11:14.130Z,101455.41
2023-04-08T06:13:40.683Z,101457.66
2023-04-08T06:16:12.426Z,101448.94
2023-04-08T06:18:39.142Z,101448.47
2023-04-08T06:21:06.266Z,101460.41
2023-04-08T06:23:32.918Z,101477.28
2023-04-08T06:25:59.420Z,101462.06
2023-04-08T06:28:26.274Z,101465.75
2023-04-08T06:30:52.785Z,101474.31
2023-04-08T06:33:19.397Z,101475.50
2023-04-08T06:35:46.042Z,101482.34
2023-04-08T06:38:12.623Z,101466.06
2023-04-08T06:40:40.425Z,101481.16
2023-04-08T06:43:09.825Z,101487.94
2023-04-08T06:45:39.657Z,101481.16
2023-04-08T06:48:08.868Z,101484.03
2023-04-08T06:50:35.890Z,101481.91
2023-04-08T06:53:02.482Z,101478.56
2023-04-08T06:55:29.044Z,101472.78
2023-04-08T06:57:55.647Z,101493.59
2023-04-08T07:00:22.181Z,101501.56
2023-04-08T07:02:48.882Z,101498.19
2023-04-08T07:05:15.561Z,101494.00
2023-04-08T07:07:42.064Z,101501.34
2023-04-08T07:10:11.112Z,101509.34
2023-04-08T07:12:37.869Z,101513.00
2023-04-08T07:15:04.833Z,101509.16
2023-04-08T07:17:32.452Z,101516.72
2023-04-08T07:19:59.391Z,101515.53
2023-04-08T07:22:26.133Z,101503.25
2023-04-08T07:24:52.783Z,101512.06
2023-04-08T07:27:19.357Z,101507.47
2023-04-08T07:29:46.099Z,101509.56
2023-04-08T07:32:12.601Z,101502.59
2023-04-08T07:34:39.159Z,101512.88
2023-04-08T07:37:05.719Z,101515.06
2023-04-08T07:39:32.365Z,101518.16
2023-04-08T07:41:58.838Z,101517.44
2023-04-08T07:44:25.610Z,101520.16
2023-04-08T07:46:52.191Z,101525.19
2023-04-08T07:49:18.827Z,101526.19
2023-04-08T07:51:45.407Z,101536.50
2023-04-08T07:54:12.523Z,101541.00
2023-04-08T07:56:40.325Z,101535.19
2023-04-08T07:59:07.275Z,101539.94
2023-04-08T08:01:35.682Z,101534.00
2023-04-08T08:04:03.343Z,101540.09
2023-04-08T08:06:33.419Z,101542.03
2023-04-08T08:09:00.457Z,101551.22
2023-04-08T08:11:29.916Z,101555.44
2023-04-08T08:13:56.940Z,101550.94
2023-04-08T08:16:27.071Z,101548.97
2023-04-08T08:18:53.809Z,101548.78
2023-04-08T08:21:20.429Z,101556.94
2023-04-08T08:23:47.166Z,101552.44
2023-04-08T08:26:13.697Z,101563.50
2023-04-08T08:28:40.257Z,101560.78
2023-04-08T08:31:06.964Z,101562.31
2023-04-08T08:33:33.968Z,101570.88
2023-04-08T08:36:00.759Z,101571.31
2023-04-08T08:38:27.691Z,101567.84
2023-04-08T08:40:58.636Z,101572.13
2023-04-08T08:43:26.383Z,101571.28
2023-04-08T08:45:53.639Z,101578.34
2023-04-08T08:48:20.698Z,101580.31
2023-04-08T08:50:47.405Z,101583.28
2023-04-08T08:53:14.005Z,101590.53
2023-04-08T08:56:05.632Z,101595.22
2023-04-08T08:58:28.322Z,101598.16
2023-04-08T09:00:55.323Z,101598.81
2023-04-08T09:03:30.252Z,101596.16
2023-04-08T09:06:03.988Z,101598.75
2023-04-08T09:08:32.910Z,101597.69
2023-04-08T09:11:18.436Z,101599.97
2023-04-08T09:13:46.405Z,101595.22
2023-04-08T09:16:16.571Z,101603.13
2023-04-08T09:18:45.801Z,101602.94
2023-04-08T09:21:14.321Z,101597.41
2023-04-08T09:23:43.945Z,101595.88
2023-04-08T09:26:22.138Z,101590.53
2023-04-08T09:29:14.778Z,101597.41
2023-04-08T09:31:59.419Z,101592.47
2023-04-08T09:34:27.671Z,101597.59
2023-04-08T09:36:55.580Z,101608.91
2023-04-08T09:39:22.830Z,101609.78
2023-04-08T09:41:50.990Z,101611.50
2023-04-08T09:44:20.522Z,101602.47
2023-04-08T09:46:50.196Z,101612.75
2023-04-08T09:49:26.892Z,101617.50
2023-04-08T09:52:04.568Z,101611.06
2023-04-08T09:54:38.668Z,101609.59
2023-04-08T09:57:11.437Z,101613.22
2023-04-08T09:59:42.991Z,101616.22
2023-04-08T10:02:11.720Z,101611.75
2023-04-08T10:04:43.931Z,101621.97
2023-04-08T10:07:10.659Z,101619.84
2023-04-08T10:09:38.585Z,101617.06
2023-04-08T10:12:05.569Z,101599.09
2023-04-08T10:14:32.512Z,101603.78
2023-04-08T10:17:25.178Z,101598.25
2023-04-08T10:19:51.956Z,101611.25
2023-04-08T10:22:33.767Z,101611.91
2023-04-08T10:25:15.673Z,101610.16
2023-04-08T10:27:43.298Z,101607.41
2023-04-08T10:30:31.583Z,101621.47
2023-04-08T10:33:03.249Z,101620.81
2023-04-08T10:35:36.950Z,101623.34
2023-04-08T10:38:03.832Z,101629.34
2023-04-08T10:40:38.900Z,101633.19
2023-04-08T10:43:05.999Z,101622.50
2023-04-08T10:45:33.057Z,101620.78
2023-04-08T10:48:19.911Z,101616.06
2023-04-08T10:50:57.842Z,101615.66
2023-04-08T10:53:35.558Z,101616.31
2023-04-08T10:56:14.887Z,101605.38
2023-04-08T10:58:52.787Z,101615.00
2023-04-08T11:01:20.006Z,101613.53
2023-04-08T11:03:46.891Z,101606.03
2023-04-08T11:06:13.548Z,101602.97
2023-04-08T11:08:40.371Z,101603.19
2023-04-08T11:11:11.560Z,101598.94
2023-04-08T11:13:52.835Z,101604.81
2023-04-08T11:16:23.985Z,101594.84
2023-04-08T11:18:51.180Z,101595.31
2023-04-08T11:21:18.072Z,101596.50
2023-04-08T11:23:44.725Z,101602.84
2023-04-08T11:26:11.770Z,101606.63
2023-04-08T11:28:38.612Z,101607.81
2023-04-08T11:31:05.914Z,101606.13
2023-04-08T11:33:35.064Z,101604.09
2023-04-08T11:36:04.460Z,101603.94
2023-04-08T11:38:31.207Z,101602.09
2023-04-08T11:40:59.819Z,101604.56
2023-04-08T11:43:27.414Z,101606.91
2023-04-08T11:45:53.986Z,101597.53
2023-04-08T11:48:21.103Z,101604.63
2023-04-08T11:50:47.760Z,101606.69
2023-04-08T11:53:41.319Z,101598.22
2023-04-08T11:56:22.279Z,101597.41
2023-04-08T11:58:50.122Z,101602.56
2023-04-08T12:01:16.707Z,101598.81
2023-04-08T12:03:57.309Z,101608.59
2023-04-08T12:06:24.615Z,101613.84
2023-04-08T12:08:51.185Z,101618.41
2023-04-08T12:11:20.043Z,101622.41
2023-04-08T12:13:46.932Z,101625.63
2023-04-08T12:16:14.112Z,101617.75
2023-04-08T12:18:40.901Z,101623.31
2023-04-08T12:21:08.578Z,101624.88
2023-04-08T12:23:35.403Z,101621.88
2023-04-08T12:26:04.305Z,101631.72
2023-04-08T12:28:31.159Z,101626.94
2023-04-08T12:30:57.880Z,101637.13
2023-04-08T12:33:24.644Z,101622.28
2023-04-08T12:35:52.181Z,101628.31
2023-04-08T12:38:18.699Z,101625.59
2023-04-08T12:40:45.699Z,101618.22
2023-04-08T12:43:12.563Z,101612.78
2023-04-08T12:45:39.308Z,101606.50
2023-04-08T12:48:06.354Z,101609.09
2023-04-08T12:50:33.104Z,101610.47
2023-04-08T12:52:59.708Z,101606.91
2023-04-08T12:55:26.551Z,101613.25
2023-04-08T12:57:53.180Z,101613.66
2023-04-08T13:00:19.819Z,101606.00
2023-04-08T13:02:46.726Z,101602.50
2023-04-08T13:05:13.884Z,101608.00
2023-04-08T13:07:40.470Z,101602.03
2023-04-08T13:10:08.485Z,101600.72
2023-04-08T13:12:35.262Z,101601.69
2023-04-08T13:15:01.887Z,101595.41
2023-04-08T13:17:28.906Z,101601.03
2023-04-08T13:19:55.568Z,101600.72
2023-04-08T13:22:22.116Z,101602.88
2023-04-08T13:24:48.773Z,101602.41
2023-04-08T13:27:15.322Z,101597.94
2023-04-08T13:29:41.873Z,101599.31
2023-04-08T13:32:08.439Z,101590.88
2023-04-08T13:34:35.202Z,101598.09
2023-04-08T13:37:02.102Z,101597.78
2023-04-08T13:39:28.719Z,101596.22
2023-04-08T13:41:56.333Z,101605.09
2023-04-08T13:44:23.177Z,101596.84
2023-04-08T13:46:49.693Z,101602.69
2023-04-08T13:49:16.225Z,101598.53
2023-04-08T13:51:42.687Z,101604.13
2023-04-08T13:54:09.281Z,101598.22
2023-04-08T13:56:35.968Z,101588.13
2023-04-08T13:59:02.873Z,101589.09
2023-04-08T14:01:29.811Z,101588.94
2023-04-08T14:03:56.806Z,101597.00
2023-04-08T14:06:23.435Z,101588.50
2023-04-08T14:08:50.802Z,101600.84
2023-04-08T14:11:17.565Z,101596.75
2023-04-08T14:13:44.120Z,101589.06
2023-04-08T14:16:10.725Z,101590.09
2023-04-08T14:18:37.578Z,101595.72
2023-04-08T14:21:05.323Z,101586.78
2023-04-08T14:23:31.900Z,101588.47
2023-04-08T14:25:58.466Z,101588.44
2023-04-08T14:28:25.157Z,101585.63
2023-04-08T14:30:52.099Z,101579.66
2023-04-08T14:33:19.121Z,101584.59
2023-04-08T14:35:45.805Z,101587.19
2023-04-08T14:38:12.481Z,101590.56
2023-04-08T14:40:38.992Z,101590.78
2023-04-08T14:43:05.528Z,101590.09
2023-04-08T14:45:33.012Z,101590.00
2023-04-08T14:47:59.753Z,101590.16
2023-04-08T14:50:26.508Z,101587.28
2023-04-08T14:52:53.133Z,101584.28
2023-04-08T14:55:22.473Z,101591.81
2023-04-08T14:57:49.142Z,101588.34
2023-04-08T15:00:16.021Z,101593.03
2023-04-08T15:02:42.722Z,101594.25
2023-04-08T15:05:09.476Z,101594.13
2023-04-08T15:07:36.348Z,101599.44
2023-04-08T15:10:02.961Z,101587.25
2023-04-08T15:12:29.563Z,101591.22
2023-04-08T15:14:56.259Z,101592.72
2023-04-08T15:17:22.867Z,101580.84
2023-04-08T15:19:49.547Z,101579.16
2023-04-08T15:22:16.150Z,101583.41
2023-04-08T15:24:42.743Z,101587.16
2023-04-08T15:27:09.477Z,101583.88
2023-04-08T15:29:36.100Z,101582.91
2023-04-08T15:32:02.802Z,101585.50
2023-04-08T15:34:29.858Z,101587.75
2023-04-08T15:36:57.142Z,101587.66
2023-04-08T15:39:23.827Z,101585.50
2023-04-08T15:41:50.423Z,101584.19
2023-04-08T15:44:17.356Z,101590.03
2023-04-08T15:46:43.959Z,101600.47
2023-04-08T15:49:10.457Z,101590.06
2023-04-08T15:51:37.075Z,101597.97
2023-04-08T15:54:03.954Z,101595.91
2023-04-08T15:56:31.045Z,101595.56
2023-04-08T15:58:57.546Z,101592.38
2023-04-08T16:01:24.292Z,101588.91
2023-04-08T16:03:50.982Z,101589.78
2023-04-08T16:06:17.600Z,101588.75
2023-04-08T16:08:46.747Z,101587.34
2023-04-08T16:11:13.299Z,101594.50
2023-04-08T16:13:42.187Z,101585.44
2023-04-08T16:16:08.910Z,101578.78
2023-04-08T16:18:35.719Z,101588.06
2023-04-08T16:21:05.469Z,101589.97
2023-04-08T16:23:31.981Z,101589.41
2023-04-08T16:25:58.586Z,101590.22
2023-04-08T16:28:27.492Z,101585.69
2023-04-08T16:30:54.129Z,101584.13
2023-04-08T16:33:23.906Z,101583.13
2023-04-08T16:35:50.624Z,101581.47
2023-04-08T16:38:17.206Z,101582.91
2023-04-08T16:40:43.869Z,101581.75
2023-04-08T16:43:10.377Z,101586.22
2023-04-08T16:45:37.754Z,101581.69
2023-04-08T16:48:04.491Z,101584.84
2023-04-08T16:50:31.146Z,101579.03
2023-04-08T16:52:57.681Z,101584.06
2023-04-08T16:55:24.301Z,101582.75
2023-04-08T16:57:50.867Z,101591.34
2023-04-08T17:04:51.112Z,101588.66
2023-04-08T17:07:18.151Z,101594.34
2023-04-08T17:09:49.345Z,101592.38
2023-04-08T17:12:16.288Z,101596.22
2023-04-08T17:14:42.885Z,101601.50
2023-04-08T17:17:09.428Z,101597.03
2023-04-08T17:19:36.470Z,101588.16
2023-04-08T17:22:03.102Z,101597.50
2023-04-08T17:24:29.684Z,101599.50
2023-04-08T17:26:59.932Z,101592.41
2023-04-08T17:29:26.468Z,101595.19
2023-04-08T17:31:53.078Z,101601.22
2023-04-08T17:34:19.722Z,101596.81
2023-04-08T17:36:46.211Z,101608.13
2023-04-08T17:39:12.743Z,101605.94
2023-04-08T17:41:41.292Z,101603.75
2023-04-08T17:44:08.775Z,101611.34
2023-04-08T17:46:35.324Z,101611.34
2023-04-08T17:49:01.914Z,101613.22
2023-04-08T17:51:30.164Z,101620.69
2023-04-08T17:53:56.800Z,101626.63
2023-04-08T17:56:23.553Z,101615.44
2023-04-08T17:58:50.228Z,101618.59
2023-04-08T18:01:17.069Z,101617.88
2023-04-08T18:03:43.743Z,101628.44
2023-04-08T18:06:10.402Z,101623.94
2023-04-08T18:08:37.006Z,101626.03
2023-04-08T18:11:06.500Z,101633.34
2023-04-08T18:13:33.495Z,101636.50
2023-04-08T18:16:00.097Z,101636.34
2023-04-08T18:18:26.736Z,101641.94
2023-04-08T18:20:53.229Z,101642.41
2023-04-08T18:23:19.750Z,101648.47
2023-04-08T18:25:47.175Z,101647.09
2023-04-08T18:28:13.745Z,101654.94
2023-04-08T18:30:40.450Z,101652.69
2023-04-08T18:33:07.550Z,101662.47
2023-04-08T18:35:34.177Z,101648.91
2023-04-08T18:38:00.723Z,101658.25
2023-04-08T18:40:27.309Z,101665.50
2023-04-08T18:42:53.969Z,101671.47
2023-04-08T18:45:20.485Z,101664.41
2023-04-08T18:47:47.104Z,101671.88
2023-04-08T18:50:13.624Z,101668.78
2023-04-08T18:52:40.176Z,101674.41
2023-04-08T18:55:06.703Z,101669.78
2023-04-08T18:57:34.401Z,101681.81
2023-04-08T19:00:01.129Z,101674.00
2023-04-08T19:02:27.838Z,101671.88
2023-04-08T19:04:55.701Z,101672.28
2023-04-08T19:07:23.214Z,101675.31
2023-04-08T19:09:49.785Z,101676.69
2023-04-08T19:12:16.387Z,101678.31
2023-04-08T19:14:42.989Z,101681.81
2023-04-08T19:17:10.889Z,101683.44
2023-04-08T19:19:37.423Z,101681.34
2023-04-08T19:22:05.650Z,101686.22
2023-04-08T19:24:32.905Z,101681.94
2023-04-08T19:26:59.955Z,101686.88
2023-04-08T19:29:29.585Z,101678.91
2023-04-08T19:31:57.378Z,101683.31
2023-04-08T19:34:23.903Z,101686.94
2023-04-08T19:36:50.489Z,101685.75
2023-04-08T19:39:17.152Z,101685.88
2023-04-08T19:41:43.728Z,101678.13
2023-04-08T19:44:10.321Z,101677.03
2023-04-08T19:46:37.274Z,101684.75
2023-04-08T19:49:04.358Z,101691.03
2023-04-08T19:51:32.621Z,101682.94
2023-04-08T19:53:59.182Z,101691.47
2023-04-08T19:58:52.559Z,101687.78
2023-04-08T20:01:19.312Z,101689.00
2023-04-08T20:03:50.542Z,101694.91
2023-04-08T20:06:17.798Z,101691.47
2023-04-08T20:08:44.825Z,101693.44
2023-04-08T20:11:11.557Z,101698.69
2023-04-08T20:13:38.186Z,101696.88
2023-04-08T20:16:04.928Z,101690.19
2023-04-08T20:18:32.154Z,101691.19
2023-04-08T20:21:00.125Z,101699.53
2023-04-08T20:23:27.230Z,101700.63
2023-04-08T20:25:53.860Z,101698.47
2023-04-08T20:28:20.958Z,101698.22
2023-04-08T20:30:48.013Z,101699.47
2023-04-08T20:33:14.536Z,101695.53
2023-04-08T20:35:41.281Z,101691.97
2023-04-08T20:38:07.809Z,101701.06
2023-04-08T20:40:34.377Z,101709.28
2023-04-08T20:43:01.012Z,101702.84
2023-04-08T20:45:28.165Z,101705.19
2023-04-08T20:47:55.554Z,101700.94
2023-04-08T20:50:22.225Z,101715.75
2023-04-08T20:52:48.746Z,101707.72
2023-04-08T20:55:15.421Z,101706.66
2023-04-08T20:57:42.000Z,101708.38
2023-04-08T21:00:09.472Z,101708.53
2023-04-08T21:02:36.324Z,101703.75
2023-04-08T21:05:03.376Z,101705.44
2023-04-08T21:07:30.353Z,101709.19
2023-04-08T21:09:57.012Z,101696.09
2023-04-08T21:12:23.504Z,101699.75
2023-04-08T21:14:50.836Z,101701.63
2023-04-08T21:17:17.507Z,101696.59
2023-04-08T21:19:44.104Z,101692.31
2023-04-08T21:22:10.610Z,101701.59
2023-04-08T21:24:37.847Z,101701.31
2023-04-08T21:27:04.483Z,101694.13
2023-04-08T21:29:31.052Z,101689.41
2023-04-08T21:31:57.715Z,101690.03
2023-04-08T21:34:24.310Z,101691.13
2023-04-08T21:36:51.034Z,101705.97
2023-04-08T21:39:17.932Z,101697.34
2023-04-08T21:41:44.750Z,101698.56
2023-04-08T21:44:11.441Z,101690.59
2023-04-08T21:46:38.148Z,101696.34
2023-04-08T21:49:04.753Z,101693.31
2023-04-08T21:51:31.330Z,101704.94
2023-04-08T21:53:57.891Z,101689.78
2023-04-08T21:56:24.550Z,101698.81
2023-04-08T21:58:51.289Z,101701.13
2023-04-08T22:01:18.096Z,101708.41
2023-04-08T22:03:45.639Z,101713.38
2023-04-08T22:06:16.682Z,101704.94
2023-04-08T22:08:50.513Z,101700.16
2023-04-08T22:11:17.468Z,101703.28
2023-04-08T22:13:44.037Z,101708.47
2023-04-08T22:16:11.350Z,101711.16
2023-04-08T22:18:38.047Z,101694.41
2023-04-08T22:21:04.616Z,101709.56
2023-04-08T22:23:31.338Z,101707.63
2023-04-08T22:25:57.832Z,101708.84
2023-04-08T22:28:24.504Z,101707.75
2023-04-08T22:30:51.404Z,101710.78
2023-04-08T22:33:17.952Z,101707.31
2023-04-08T22:35:44.479Z,101709.00
2023-04-08T22:38:11.541Z,101706.06
2023-04-08T22:40:38.044Z,101703.88
2023-04-08T22:43:04.676Z,101706.66
2023-04-08T22:45:31.275Z,101702.94
2023-04-08T22:47:58.042Z,101698.50
2023-04-08T22:50:24.683Z,101700.16
2023-04-08T22:52:51.276Z,101695.03
2023-04-08T22:55:17.875Z,101703.56
2023-04-08T22:57:44.411Z,101699.94
2023-04-08T23:00:12.175Z,101709.06
2023-04-08T23:02:38.801Z,101704.72
2023-04-08T23:05:06.040Z,101708.16
2023-04-08T23:07:32.644Z,101699.78
2023-04-08T23:09:59.177Z,101697.66
2023-04-08T23:12:25.740Z,101692.47
2023-04-08T23:14:52.253Z,101694.28
2023-04-08T23:17:18.812Z,101687.03
2023-04-08T23:19:45.341Z,101692.69
2023-04-08T23:22:11.890Z,101689.09
2023-04-08T23:24:38.415Z,101689.28
2023-04-08T23:27:04.958Z,101687.59
2023-04-08T23:29:31.719Z,101699.59
2023-04-08T23:31:58.475Z,101693.16
2023-04-08T23:34:25.168Z,101694.25
2023-04-08T23:36:51.876Z,101693.59
2023-04-08T23:39:19.636Z,101684.59
2023-04-08T23:41:46.310Z,101689.75
2023-04-08T23:44:12.955Z,101683.34
2023-04-08T23:46:39.650Z,101682.69
2023-04-08T23:49:06.373Z,101680.75
2023-04-08T23:51:33.074Z,101682.03
2023-04-08T23:53:59.687Z,101677.38
2023-04-08T23:56:26.303Z,101682.94
2023-04-08T23:58:52.944Z,101678.25
